Time;durP1;ratioP1;P1;durP2;ratioP2;P2;SDS_P1;SDS_P2;PMS_P1;PMS_P2;Temp;Humidity;BMP_temperature;BMP_pressure;BME280_temperature;BME280_humidity;BME280_pressure;Samples;Min_cycle;Max_cycle;Signal;HPM_P1;HPM_P2
2021/03/21 00:00:40;;;;;;;22.57;12.30;;;7.30;99.90;;;;;;5048822;28;20259;-79
2021/03/21 00:03:07;;;;;;;25.50;13.47;;;7.20;99.90;;;;;;5044581;28;20212;-77
2021/03/21 00:05:33;;;;;;;25.53;13.30;;;7.20;99.90;;;;;;5051605;28;20280;-79
2021/03/21 00:08:06;;;;;;;23.77;13.67;;;7.30;99.90;;;;;;5051398;28;20213;-77
2021/03/21 00:10:34;;;;;;;25.50;13.27;;;7.30;99.90;;;;;;5051252;28;20664;-78
2021/03/21 00:13:02;;;;;;;24.63;13.07;;;7.20;99.90;;;;;;5052390;28;20203;-78
2021/03/21 00:15:29;;;;;;;24.37;13.70;;;7.10;99.90;;;;;;5051688;28;20256;-79
2021/03/21 00:17:56;;;;;;;22.77;13.10;;;7.10;99.90;;;;;;5051658;28;20210;-78
2021/03/21 00:20:27;;;;;;;28.43;13.77;;;7.30;99.90;;;;;;5051229;28;20625;-79
2021/03/21 00:22:53;;;;;;;22.90;12.87;;;7.10;99.90;;;;;;5050027;28;20255;-79
2021/03/21 00:25:23;;;;;;;24.93;13.77;;;7.20;99.90;;;;;;5050912;28;20205;-78
2021/03/21 00:27:50;;;;;;;24.20;12.67;;;7.20;99.90;;;;;;5048919;28;20201;-79
2021/03/21 00:30:20;;;;;;;23.07;12.73;;;7.20;99.90;;;;;;5049969;28;20293;-80
2021/03/21 00:32:47;;;;;;;28.10;13.77;;;7.10;99.90;;;;;;5053369;28;20216;-80
2021/03/21 00:35:13;;;;;;;23.83;13.50;;;7.20;99.90;;;;;;5052927;28;20197;-80
2021/03/21 00:37:41;;;;;;;22.80;13.27;;;7.20;99.90;;;;;;5053411;28;20229;-80
2021/03/21 00:40:11;;;;;;;23.20;12.83;;;7.20;99.90;;;;;;5053714;28;20201;-82
2021/03/21 00:42:38;;;;;;;22.73;12.70;;;7.20;99.90;;;;;;5051898;28;20229;-81
2021/03/21 00:45:07;;;;;;;22.77;12.97;;;7.30;99.90;;;;;;5051860;28;20209;-81
2021/03/21 00:47:34;;;;;;;23.03;13.00;;;7.20;99.90;;;;;;5052474;28;20226;-81
2021/03/21 00:50:01;;;;;;;23.80;13.17;;;7.10;99.90;;;;;;5052772;28;20316;-81
2021/03/21 00:52:27;;;;;;;24.30;13.93;;;7.10;99.90;;;;;;5050566;28;20293;-81
2021/03/21 00:54:54;;;;;;;22.57;12.93;;;7.00;99.90;;;;;;5052563;28;20234;-81
2021/03/21 00:57:20;;;;;;;23.43;13.30;;;7.00;99.90;;;;;;5052592;28;20233;-79
2021/03/21 00:59:48;;;;;;;22.70;13.10;;;7.00;99.90;;;;;;5066963;28;20197;-81
2021/03/21 01:02:14;;;;;;;23.90;13.37;;;7.00;99.90;;;;;;5056962;28;20280;-81
2021/03/21 01:04:41;;;;;;;24.77;13.07;;;7.00;99.90;;;;;;5057696;28;20288;-81
2021/03/21 01:07:08;;;;;;;24.03;13.23;;;7.00;99.90;;;;;;5057393;28;20201;-80
2021/03/21 01:09:34;;;;;;;26.30;13.60;;;7.10;99.90;;;;;;5058289;28;20208;-80
2021/03/21 01:12:01;;;;;;;25.03;13.80;;;7.20;99.90;;;;;;5054756;28;20288;-81
2021/03/21 01:14:27;;;;;;;22.87;13.27;;;7.20;99.90;;;;;;5056203;28;20277;-81
2021/03/21 01:16:55;;;;;;;24.63;13.80;;;7.10;99.90;;;;;;5055892;28;20277;-81
2021/03/21 01:19:22;;;;;;;26.03;14.93;;;7.10;99.90;;;;;;5055849;28;20301;-81
2021/03/21 01:21:49;;;;;;;24.67;13.40;;;7.10;99.90;;;;;;5054358;28;20742;-82
2021/03/21 01:24:18;;;;;;;30.03;15.13;;;7.10;99.90;;;;;;5055420;28;20646;-81
2021/03/21 01:26:45;;;;;;;25.37;14.20;;;7.20;99.90;;;;;;5052260;28;20205;-81
2021/03/21 01:29:11;;;;;;;25.47;13.90;;;7.20;99.90;;;;;;5055644;28;20305;-79
2021/03/21 01:31:38;;;;;;;26.47;14.20;;;7.20;99.90;;;;;;5055635;28;20198;-81
2021/03/21 01:34:05;;;;;;;24.93;13.80;;;7.20;99.90;;;;;;5056092;28;20209;-82
2021/03/21 01:36:34;;;;;;;27.67;13.00;;;7.10;99.90;;;;;;5055069;28;20202;-80
2021/03/21 01:39:04;;;;;;;27.53;14.63;;;7.10;99.90;;;;;;5047983;28;20303;-81
2021/03/21 01:41:32;;;;;;;26.47;13.87;;;7.20;99.90;;;;;;5045628;28;20225;-80
2021/03/21 01:43:59;;;;;;;25.60;15.03;;;7.20;99.90;;;;;;5055755;28;20291;-80
2021/03/21 01:46:41;;;;;;;25.40;13.77;;;7.30;99.90;;;;;;5055617;28;20614;-81
2021/03/21 01:49:15;;;;;;;27.00;14.40;;;7.30;99.90;;;;;;5057488;28;20285;-80
2021/03/21 01:51:42;;;;;;;25.47;14.07;;;7.30;99.90;;;;;;5057398;28;20222;-81
2021/03/21 01:54:13;;;;;;;25.03;14.10;;;7.30;99.90;;;;;;5057925;28;20222;-81
2021/03/21 01:56:40;;;;;;;27.70;14.70;;;7.30;99.90;;;;;;5060091;28;20230;-80
2021/03/21 01:59:09;;;;;;;27.60;15.03;;;7.30;99.90;;;;;;5056885;28;20228;-80
2021/03/21 02:01:36;;;;;;;29.50;15.03;;;7.30;99.90;;;;;;5059938;28;20241;-80
2021/03/21 02:04:03;;;;;;;25.67;14.37;;;7.30;99.90;;;;;;5052898;28;20286;-81
2021/03/21 02:06:49;;;;;;;28.13;15.33;;;7.30;99.90;;;;;;5049062;28;20734;-80
2021/03/21 02:09:23;;;;;;;28.67;15.80;;;7.30;99.90;;;;;;5056179;28;20214;-80
2021/03/21 02:12:20;;;;;;;28.90;15.50;;;7.30;99.90;;;;;;5055012;28;20700;-81
2021/03/21 02:14:55;;;;;;;31.80;16.67;;;7.20;99.90;;;;;;5056104;28;20202;-80
2021/03/21 02:17:27;;;;;;;34.77;16.30;;;7.30;99.90;;;;;;5055375;28;20312;-80
2021/03/21 02:20:14;;;;;;;35.57;16.60;;;7.30;99.90;;;;;;5055004;28;20207;-80
2021/03/21 02:22:48;;;;;;;33.07;16.37;;;7.30;99.90;;;;;;5048317;28;20695;-80
2021/03/21 02:25:57;;;;;;;34.73;17.70;;;7.20;99.90;;;;;;5054904;28;20303;-80
2021/03/21 02:28:43;;;;;;;37.47;18.27;;;7.30;99.90;;;;;;5046324;28;20252;-80
2021/03/21 02:31:17;;;;;;;34.90;17.57;;;7.20;99.90;;;;;;5042651;28;20286;-79
2021/03/21 02:33:52;;;;;;;37.27;18.33;;;7.20;99.90;;;;;;5054619;28;20198;-79
2021/03/21 02:36:22;;;;;;;39.87;19.20;;;7.20;99.90;;;;;;5053821;28;20291;-80
2021/03/21 02:38:53;;;;;;;37.77;17.80;;;7.20;99.90;;;;;;5050716;28;20248;-79
2021/03/21 02:41:26;;;;;;;38.87;18.67;;;7.10;99.90;;;;;;5049748;28;20228;-80
2021/03/21 02:43:56;;;;;;;39.53;18.87;;;7.20;99.90;;;;;;5054000;28;20292;-80
2021/03/21 02:46:29;;;;;;;39.67;18.90;;;7.20;99.90;;;;;;5048065;28;20209;-81
2021/03/21 02:49:01;;;;;;;39.63;19.00;;;7.10;99.90;;;;;;5052881;28;20296;-81
2021/03/21 02:51:31;;;;;;;37.67;18.97;;;7.30;99.90;;;;;;5043658;28;20210;-80
2021/03/21 02:54:02;;;;;;;39.30;19.53;;;7.20;99.90;;;;;;5045428;28;20197;-79
2021/03/21 02:56:30;;;;;;;49.03;20.13;;;7.20;99.90;;;;;;5051046;28;20289;-80
2021/03/21 02:59:02;;;;;;;45.27;20.90;;;7.30;99.90;;;;;;5046471;28;20251;-80
2021/03/21 03:01:33;;;;;;;43.83;19.70;;;7.40;99.90;;;;;;5060469;28;20692;-80
2021/03/21 03:04:15;;;;;;;42.90;20.33;;;7.40;99.90;;;;;;5054379;28;20201;-82
2021/03/21 03:06:46;;;;;;;44.77;21.03;;;7.30;99.90;;;;;;5051533;28;20569;-80
2021/03/21 03:09:17;;;;;;;45.03;22.00;;;7.30;99.90;;;;;;5045672;28;20765;-82
2021/03/21 03:11:47;;;;;;;42.57;20.40;;;7.20;99.90;;;;;;5040623;28;20265;-81
2021/03/21 03:14:18;;;;;;;44.93;20.63;;;7.30;99.90;;;;;;5045868;28;20208;-81
2021/03/21 03:16:56;;;;;;;46.97;20.50;;;7.40;99.90;;;;;;5049562;28;20228;-80
2021/03/21 03:19:31;;;;;;;45.23;21.20;;;7.40;99.90;;;;;;5047634;28;20331;-81
2021/03/21 03:22:02;;;;;;;47.30;21.87;;;7.30;99.90;;;;;;5048473;28;20236;-80
2021/03/21 03:24:37;;;;;;;53.67;22.23;;;7.40;99.90;;;;;;5053832;28;20205;-80
2021/03/21 03:27:11;;;;;;;47.73;22.00;;;7.30;99.90;;;;;;5050444;28;20210;-81
2021/03/21 03:29:40;;;;;;;42.43;21.70;;;7.40;99.90;;;;;;5061235;28;20279;-80
2021/03/21 03:32:11;;;;;;;49.43;22.93;;;7.40;99.90;;;;;;5052060;28;20256;-81
2021/03/21 03:34:39;;;;;;;48.07;23.17;;;7.40;99.90;;;;;;5053393;28;20217;-81
2021/03/21 03:37:05;;;;;;;47.73;22.73;;;7.50;99.90;;;;;;5051954;28;20238;-81
2021/03/21 03:39:34;;;;;;;50.90;23.03;;;7.40;99.90;;;;;;5049727;28;20200;-81
2021/03/21 03:42:08;;;;;;;45.63;22.60;;;7.30;99.90;;;;;;5035656;28;20236;-80
2021/03/21 03:44:41;;;;;;;48.27;22.40;;;7.30;99.90;;;;;;5044933;28;20218;-81
2021/03/21 03:47:14;;;;;;;46.43;20.87;;;7.30;99.90;;;;;;5036705;28;20639;-81
2021/03/21 03:49:48;;;;;;;42.27;22.40;;;7.40;99.90;;;;;;5051600;28;20233;-80
2021/03/21 03:52:45;;;;;;;50.63;23.10;;;7.40;99.90;;;;;;5048870;28;20287;-81
2021/03/21 03:55:18;;;;;;;49.83;22.20;;;7.40;99.90;;;;;;5038962;28;20210;-81
2021/03/21 03:57:52;;;;;;;49.00;22.67;;;7.40;99.90;;;;;;5054602;28;20283;-82
2021/03/21 04:00:27;;;;;;;45.07;21.43;;;7.50;99.90;;;;;;5052831;28;20630;-81
2021/03/21 04:03:15;;;;;;;45.53;22.67;;;7.50;99.90;;;;;;5054162;28;20271;-81
2021/03/21 04:05:48;;;;;;;48.43;22.93;;;7.50;99.90;;;;;;5031456;28;20260;-81
2021/03/21 04:08:23;;;;;;;45.43;22.40;;;7.50;99.90;;;;;;5043806;28;20269;-82
2021/03/21 04:11:01;;;;;;;50.00;23.10;;;7.50;99.90;;;;;;5043262;28;20207;-80
2021/03/21 04:13:34;;;;;;;49.50;23.00;;;7.40;99.90;;;;;;5051209;28;20229;-81
2021/03/21 04:16:01;;;;;;;52.10;24.03;;;7.50;99.90;;;;;;5051135;28;20644;-80
2021/03/21 04:18:33;;;;;;;47.57;23.17;;;7.60;99.90;;;;;;5052366;28;20231;-81
2021/03/21 04:21:06;;;;;;;51.20;22.70;;;7.50;99.90;;;;;;5052359;28;20218;-80
2021/03/21 04:23:37;;;;;;;47.50;22.83;;;7.50;99.90;;;;;;5051654;28;20736;-81
2021/03/21 04:26:06;;;;;;;54.37;24.33;;;7.60;99.90;;;;;;5053719;28;20293;-82
2021/03/21 04:28:41;;;;;;;48.87;23.30;;;7.60;99.90;;;;;;5051207;28;20210;-81
2021/03/21 04:31:12;;;;;;;58.63;25.00;;;7.60;99.90;;;;;;5054097;28;20225;-82
2021/03/21 04:33:45;;;;;;;53.77;26.30;;;7.60;99.90;;;;;;5053829;28;20198;-80
2021/03/21 04:36:14;;;;;;;52.50;25.07;;;7.50;99.90;;;;;;5055493;28;20202;-80
2021/03/21 04:38:46;;;;;;;56.47;24.83;;;7.50;99.90;;;;;;5056655;28;20222;-80
2021/03/21 04:41:19;;;;;;;57.77;26.57;;;7.40;99.90;;;;;;5056512;28;20220;-82
2021/03/21 04:43:50;;;;;;;60.20;27.07;;;7.50;99.90;;;;;;5056947;28;20285;-79
2021/03/21 04:46:22;;;;;;;60.07;27.20;;;7.60;99.90;;;;;;5056310;28;20288;-81
2021/03/21 04:48:52;;;;;;;59.63;27.10;;;7.60;99.90;;;;;;5053263;28;20243;-82
2021/03/21 04:51:21;;;;;;;63.33;27.20;;;7.60;99.90;;;;;;5054314;28;20209;-81
2021/03/21 04:53:52;;;;;;;61.70;26.83;;;7.70;99.90;;;;;;5056504;28;20285;-80
2021/03/21 04:56:25;;;;;;;65.40;27.47;;;7.60;99.90;;;;;;5055567;28;20220;-81
2021/03/21 04:58:57;;;;;;;65.50;27.33;;;7.60;99.90;;;;;;5054850;28;20242;-79
2021/03/21 05:01:26;;;;;;;66.10;28.43;;;7.60;99.90;;;;;;5055338;28;20225;-81
2021/03/21 05:04:03;;;;;;;66.83;28.23;;;7.60;99.90;;;;;;5044081;28;20297;-83
2021/03/21 05:06:46;;;;;;;63.97;28.93;;;7.70;99.90;;;;;;5055961;28;20288;-81
2021/03/21 05:09:17;;;;;;;67.43;28.70;;;7.70;99.90;;;;;;5040155;28;20293;-81
2021/03/21 05:11:49;;;;;;;64.23;28.43;;;7.70;99.90;;;;;;5052628;28;20292;-81
2021/03/21 05:14:24;;;;;;;73.77;29.60;;;7.80;99.90;;;;;;5055999;28;20625;-82
2021/03/21 05:17:15;;;;;;;75.40;29.07;;;7.80;99.90;;;;;;5053517;28;20197;-80
2021/03/21 05:19:55;;;;;;;68.73;28.33;;;7.80;99.90;;;;;;5056025;28;20206;-83
2021/03/21 05:22:31;;;;;;;82.45;36.38;;;7.70;99.90;;;;;;5042181;28;20459;-81
2021/03/21 05:25:03;;;;;;;74.87;31.90;;;7.80;99.90;;;;;;5056938;28;20197;-81
2021/03/21 05:27:37;;;;;;;67.03;29.87;;;7.70;99.90;;;;;;5057503;28;20215;-81
2021/03/21 05:30:10;;;;;;;67.70;29.23;;;7.70;99.90;;;;;;5056281;28;20279;-81
2021/03/21 05:32:37;;;;;;;72.87;29.60;;;7.70;99.90;;;;;;5048176;28;20231;-82
2021/03/21 05:35:07;;;;;;;70.13;29.97;;;7.60;99.90;;;;;;5057878;28;20198;-81
2021/03/21 05:37:45;;;;;;;66.97;28.97;;;7.60;99.90;;;;;;5048301;28;20209;-82
2021/03/21 05:41:05;;;;;;;67.67;29.97;;;7.60;99.90;;;;;;5052724;28;20205;-81
2021/03/21 05:44:16;;;;;;;63.87;29.33;;;7.70;99.90;;;;;;5059667;28;20222;-80
2021/03/21 05:46:59;;;;;;;66.73;27.80;;;7.90;99.90;;;;;;4987419;28;20228;-82
2021/03/21 05:49:42;;;;;;;58.57;27.87;;;7.90;99.90;;;;;;5074786;28;20210;-81
2021/03/21 05:52:57;;;;;;;64.97;29.00;;;7.90;99.90;;;;;;5073493;28;20185;-80
2021/03/21 05:55:42;;;;;;;63.63;28.23;;;7.80;99.90;;;;;;4998969;28;20223;-82
2021/03/21 05:58:34;;;;;;;63.23;28.73;;;7.80;99.90;;;;;;5069005;28;20206;-81
2021/03/21 06:01:44;;;;;;;60.27;27.37;;;7.80;99.90;;;;;;5053359;28;20215;-81
2021/03/21 06:04:52;;;;;;;64.20;28.50;;;7.80;99.90;;;;;;5062928;28;20204;-81
2021/03/21 06:07:52;;;;;;;63.23;27.50;;;7.90;99.90;;;;;;5044429;28;20260;-81
2021/03/21 06:11:06;;;;;;;60.93;27.83;;;7.80;99.90;;;;;;5046107;28;20365;-81
2021/03/21 06:13:42;;;;;;;69.63;34.17;;;7.80;99.90;;;;;;5054131;28;20469;-80
2021/03/21 06:16:31;;;;;;;60.60;29.30;;;7.80;99.90;;;;;;5046539;28;20257;-82
2021/03/21 06:19:20;;;;;;;58.00;27.97;;;7.90;99.90;;;;;;5054205;28;20751;-80
2021/03/21 06:22:02;;;;;;;62.33;27.27;;;7.90;99.90;;;;;;5054783;28;20257;-80
2021/03/21 06:24:37;;;;;;;65.37;26.60;;;7.90;99.90;;;;;;5039882;28;20195;-79
2021/03/21 06:27:24;;;;;;;59.80;28.53;;;7.80;99.90;;;;;;5033394;28;20194;-82
2021/03/21 06:30:22;;;;;;;61.07;27.63;;;7.80;99.90;;;;;;5051224;28;20284;-80
2021/03/21 06:33:10;;;;;;;56.87;26.90;;;7.90;99.90;;;;;;5035269;28;20297;-81
2021/03/21 06:35:56;;;;;;;60.40;28.63;;;7.80;99.90;;;;;;5047750;28;20216;-81
2021/03/21 06:38:40;;;;;;;67.90;29.37;;;7.80;99.90;;;;;;5054638;28;20212;-80
2021/03/21 06:41:25;;;;;;;66.30;30.63;;;7.80;99.90;;;;;;5036969;28;20230;-78
2021/03/21 06:44:29;;;;;;;60.50;29.33;;;7.90;99.90;;;;;;5034547;28;20202;-79
2021/03/21 06:47:34;;;;;;;61.93;29.53;;;7.90;99.90;;;;;;4991135;28;20212;-80
2021/03/21 06:50:31;;;;;;;62.43;29.23;;;8.10;99.90;;;;;;5035148;28;20302;-79
2021/03/21 06:53:07;;;;;;;63.27;29.87;;;8.10;99.90;;;;;;5046615;28;20202;-80
2021/03/21 06:55:38;;;;;;;62.17;30.50;;;8.10;99.90;;;;;;5033420;28;20301;-81
2021/03/21 06:58:34;;;;;;;58.30;30.77;;;8.10;99.90;;;;;;5041831;28;20627;-80
2021/03/21 07:01:19;;;;;;;62.47;30.73;;;8.20;99.90;;;;;;5036505;28;20223;-80
2021/03/21 07:04:23;;;;;;;60.20;29.47;;;8.10;99.90;;;;;;5034498;28;20286;-81
2021/03/21 07:07:46;;;;;;;60.87;30.00;;;8.20;99.90;;;;;;5053784;28;20202;-80
2021/03/21 07:10:54;;;;;;;54.80;28.40;;;8.10;99.90;;;;;;5034461;28;20284;-79
2021/03/21 07:13:58;;;;;;;50.17;25.70;;;8.00;99.90;;;;;;5043123;28;20210;-78
2021/03/21 07:16:52;;;;;;;45.37;21.53;;;8.00;99.90;;;;;;4983406;28;20202;-78
2021/03/21 07:19:57;;;;;;;38.77;19.83;;;8.00;99.90;;;;;;5031365;28;20394;-77
2021/03/21 07:23:04;;;;;;;34.33;16.90;;;8.00;99.90;;;;;;5034276;28;20223;-78
2021/03/21 07:26:06;;;;;;;19.27;9.47;;;8.10;99.90;;;;;;5041585;28;20285;-79
2021/03/21 07:28:58;;;;;;;14.73;7.53;;;8.20;99.90;;;;;;5034043;28;20303;-78
2021/03/21 07:31:40;;;;;;;14.10;7.17;;;8.20;99.90;;;;;;5033697;28;20207;-78
2021/03/21 07:34:31;;;;;;;17.83;7.27;;;8.30;99.90;;;;;;5035177;28;20208;-79
2021/03/21 07:37:06;;;;;;;14.13;5.90;;;8.40;99.90;;;;;;5044707;28;20623;-78
2021/03/21 07:39:45;;;;;;;8.63;5.03;;;8.30;99.90;;;;;;5042430;28;20288;-78
2021/03/21 07:42:27;;;;;;;9.97;4.20;;;8.20;99.90;;;;;;5050012;28;20217;-81
2021/03/21 07:45:22;;;;;;;14.43;5.20;;;8.00;99.90;;;;;;5039332;28;20214;-80
2021/03/21 07:48:28;;;;;;;7.07;3.73;;;8.00;99.90;;;;;;5033763;28;20225;-79
2021/03/21 07:51:07;;;;;;;6.80;3.00;;;8.00;99.90;;;;;;5012832;28;20237;-81
2021/03/21 07:53:39;;;;;;;7.70;3.00;;;7.90;99.90;;;;;;5052792;28;20280;-80
2021/03/21 07:56:16;;;;;;;12.90;2.97;;;8.00;99.90;;;;;;5035353;28;20206;-80
2021/03/21 07:58:47;;;;;;;5.27;2.20;;;8.00;99.90;;;;;;5047176;28;20270;-80
2021/03/21 08:01:16;;;;;;;7.43;2.80;;;7.90;99.90;;;;;;5046457;28;20223;-80
2021/03/21 08:03:53;;;;;;;6.80;2.10;;;7.90;99.90;;;;;;5042610;28;20302;-81
2021/03/21 08:06:27;;;;;;;6.30;2.10;;;7.90;99.90;;;;;;5049295;28;20248;-81
2021/03/21 08:09:00;;;;;;;6.40;1.93;;;7.90;99.90;;;;;;5041114;28;20238;-81
2021/03/21 08:11:30;;;;;;;8.03;2.03;;;8.00;99.90;;;;;;5052779;28;20209;-80
2021/03/21 08:14:08;;;;;;;7.33;1.40;;;8.30;99.90;;;;;;5052107;28;20205;-81
2021/03/21 08:16:42;;;;;;;5.57;1.43;;;8.40;99.90;;;;;;5047066;28;20217;-81
2021/03/21 08:19:13;;;;;;;6.00;2.23;;;8.70;99.90;;;;;;5044662;28;20204;-80
2021/03/21 08:21:39;;;;;;;5.37;1.40;;;8.70;99.90;;;;;;5041671;28;20777;-80
2021/03/21 08:24:13;;;;;;;11.30;1.50;;;8.90;99.90;;;;;;5045050;28;20244;-80
2021/03/21 08:26:42;;;;;;;5.00;1.50;;;9.10;99.90;;;;;;5047868;28;20206;-81
2021/03/21 08:29:11;;;;;;;4.10;1.13;;;9.00;99.90;;;;;;5053021;28;20233;-81
2021/03/21 08:31:40;;;;;;;7.37;1.60;;;9.10;99.90;;;;;;5039425;28;20203;-81
2021/03/21 08:34:36;;;;;;;9.97;1.47;;;9.30;99.90;;;;;;5052421;28;20734;-82
2021/03/21 08:37:12;;;;;;;6.67;1.50;;;9.50;99.90;;;;;;5045682;28;20212;-80
2021/03/21 08:39:43;;;;;;;4.13;1.30;;;9.40;99.90;;;;;;5048150;28;20224;-80
2021/03/21 08:42:28;;;;;;;8.50;1.80;;;9.50;99.90;;;;;;5040001;28;20325;-79
2021/03/21 08:45:17;;;;;;;5.43;1.63;;;9.60;99.90;;;;;;5037299;28;20324;-81
2021/03/21 08:47:43;;;;;;;5.00;2.23;;;9.60;99.90;;;;;;5040081;28;20289;-80
2021/03/21 08:50:31;;;;;;;11.20;2.27;;;9.70;99.90;;;;;;5042234;28;20195;-79
2021/03/21 08:52:58;;;;;;;7.73;2.17;;;9.80;99.90;;;;;;5044181;28;20212;-79
2021/03/21 08:55:27;;;;;;;7.10;2.13;;;9.70;99.90;;;;;;5043897;28;20677;-81
2021/03/21 08:57:54;;;;;;;9.17;2.23;;;9.30;99.90;;;;;;5047735;28;20306;-81
2021/03/21 09:00:33;;;;;;;7.90;2.23;;;9.20;99.90;;;;;;5046355;28;20201;-81
2021/03/21 09:02:59;;;;;;;14.83;3.77;;;9.10;99.90;;;;;;5050313;28;20399;-79
2021/03/21 09:05:26;;;;;;;9.50;2.90;;;9.20;99.90;;;;;;5047478;28;20240;-81
2021/03/21 09:08:06;;;;;;;10.53;2.60;;;9.30;99.90;;;;;;5045328;28;20234;-82
2021/03/21 09:10:34;;;;;;;8.23;2.17;;;9.10;99.90;;;;;;5041953;28;20295;-82
2021/03/21 09:13:18;;;;;;;15.57;2.37;;;9.10;99.90;;;;;;5051108;28;20208;-82
2021/03/21 09:15:46;;;;;;;9.43;2.80;;;8.90;99.90;;;;;;5047061;28;20762;-80
2021/03/21 09:18:25;;;;;;;6.17;2.50;;;8.70;99.90;;;;;;5045768;28;20707;-81
2021/03/21 09:21:16;;;;;;;6.37;1.97;;;8.80;99.90;;;;;;5051602;28;20734;-80
2021/03/21 09:23:46;;;;;;;10.37;2.40;;;8.90;99.90;;;;;;5052460;28;20714;-79
2021/03/21 09:26:30;;;;;;;10.67;1.90;;;9.20;99.90;;;;;;5052754;28;20204;-78
2021/03/21 09:29:02;;;;;;;3.93;1.43;;;8.90;99.90;;;;;;5051798;28;20279;-80
2021/03/21 09:31:29;;;;;;;6.93;1.93;;;8.90;99.90;;;;;;5053024;28;20281;-80
2021/03/21 09:34:01;;;;;;;3.30;1.20;;;9.00;99.90;;;;;;5053003;28;20237;-80
2021/03/21 09:36:33;;;;;;;11.03;1.90;;;9.10;99.90;;;;;;5050170;28;20211;-82
2021/03/21 09:39:09;;;;;;;9.07;1.77;;;9.10;99.90;;;;;;5049990;28;20206;-81
2021/03/21 09:41:38;;;;;;;11.43;2.03;;;9.10;99.90;;;;;;5053727;28;20212;-81
2021/03/21 09:44:20;;;;;;;13.83;2.23;;;9.00;99.90;;;;;;5049498;28;20211;-81
2021/03/21 09:46:49;;;;;;;9.60;2.00;;;8.90;99.90;;;;;;5050125;28;20301;-81
2021/03/21 09:49:25;;;;;;;14.27;2.03;;;8.90;99.90;;;;;;5048953;28;20297;-80
2021/03/21 09:51:53;;;;;;;9.93;1.83;;;8.90;99.90;;;;;;5052802;28;20284;-80
2021/03/21 09:54:39;;;;;;;8.27;1.57;;;8.90;99.90;;;;;;5051017;28;20664;-79
2021/03/21 09:57:35;;;;;;;8.73;1.70;;;8.90;99.90;;;;;;5042653;28;20660;-80
2021/03/21 10:00:07;;;;;;;7.70;1.63;;;8.80;99.90;;;;;;5043946;28;20284;-80
2021/03/21 10:02:42;;;;;;;7.67;1.30;;;8.80;99.90;;;;;;5050275;28;20297;-78
2021/03/21 10:05:18;;;;;;;9.13;2.00;;;9.00;99.90;;;;;;5051863;28;20206;-79
2021/03/21 10:07:51;;;;;;;14.33;1.90;;;9.40;99.90;;;;;;5055812;28;20632;-80
2021/03/21 10:10:22;;;;;;;12.77;2.33;;;9.50;99.90;;;;;;5049796;28;20285;-81
2021/03/21 10:12:48;;;;;;;20.00;3.10;;;9.50;99.90;;;;;;5053025;28;20225;-82
2021/03/21 10:15:18;;;;;;;10.77;1.70;;;9.30;99.90;;;;;;5053312;28;20647;-78
2021/03/21 10:17:53;;;;;;;8.80;1.67;;;9.20;99.90;;;;;;5053625;28;20427;-79
2021/03/21 10:20:42;;;;;;;10.53;2.70;;;9.10;99.90;;;;;;5053672;28;20224;-80
2021/03/21 10:23:09;;;;;;;12.83;2.23;;;9.20;99.90;;;;;;5050363;28;20223;-81
2021/03/21 10:25:54;;;;;;;12.90;1.77;;;9.20;99.90;;;;;;5047923;28;20230;-79
2021/03/21 10:28:33;;;;;;;17.87;2.33;;;9.00;99.90;;;;;;5048545;28;20225;-79
2021/03/21 10:31:38;;;;;;;14.83;2.03;;;9.20;99.90;;;;;;5051842;28;20205;-81
2021/03/21 10:34:36;;;;;;;10.10;1.43;;;9.20;99.90;;;;;;5042276;28;20210;-80
2021/03/21 10:37:04;;;;;;;13.80;2.83;;;9.30;99.90;;;;;;5014008;28;20300;-81
2021/03/21 10:39:54;;;;;;;11.67;2.17;;;9.40;99.90;;;;;;5048835;28;20238;-79
2021/03/21 10:42:44;;;;;;;9.37;2.20;;;9.30;99.90;;;;;;5049794;28;20783;-81
2021/03/21 10:45:12;;;;;;;15.27;2.57;;;9.30;99.90;;;;;;5048002;28;20292;-79
2021/03/21 10:47:51;;;;;;;13.67;2.20;;;9.50;99.90;;;;;;5046368;28;20673;-80
2021/03/21 10:50:54;;;;;;;11.27;2.50;;;9.70;99.90;;;;;;5045126;28;20205;-79
2021/03/21 10:53:28;;;;;;;11.60;2.13;;;9.90;99.90;;;;;;5028418;28;20267;-76
2021/03/21 10:56:04;;;;;;;17.40;2.60;;;9.90;99.90;;;;;;5047597;28;20673;-79
2021/03/21 10:58:40;;;;;;;14.77;2.43;;;9.70;99.90;;;;;;5055076;28;20210;-79
2021/03/21 11:01:29;;;;;;;12.07;2.43;;;9.70;99.90;;;;;;5046834;28;20271;-77
2021/03/21 11:04:19;;;;;;;12.97;2.50;;;9.70;99.90;;;;;;5045960;28;20238;-79
2021/03/21 11:06:51;;;;;;;14.70;2.33;;;9.70;99.90;;;;;;5034853;28;20207;-78
2021/03/21 11:09:20;;;;;;;14.30;2.53;;;9.80;99.90;;;;;;5045006;28;20241;-79
2021/03/21 11:11:48;;;;;;;16.50;2.60;;;9.90;99.90;;;;;;5048072;28;20238;-77
2021/03/21 11:14:21;;;;;;;14.10;2.20;;;9.70;99.90;;;;;;5046845;28;20685;-77
2021/03/21 11:16:52;;;;;;;14.87;2.33;;;9.60;99.90;;;;;;5040967;28;20197;-77
2021/03/21 11:19:21;;;;;;;14.10;2.57;;;9.60;99.90;;;;;;5050998;28;20289;-78
2021/03/21 11:21:47;;;;;;;17.97;2.93;;;9.50;99.90;;;;;;5046794;28;20252;-77
2021/03/21 11:24:26;;;;;;;8.33;2.27;;;9.50;99.90;;;;;;5050515;28;20198;-77
2021/03/21 11:26:53;;;;;;;13.30;2.07;;;9.50;99.90;;;;;;5043009;28;20292;-78
2021/03/21 11:29:31;;;;;;;9.57;2.03;;;9.10;99.90;;;;;;5044228;28;20279;-77
2021/03/21 11:32:02;;;;;;;8.17;1.83;;;9.10;99.90;;;;;;5045886;28;20244;-78
2021/03/21 11:34:33;;;;;;;14.43;2.23;;;9.10;99.90;;;;;;5049082;28;20273;-78
2021/03/21 11:37:03;;;;;;;14.17;2.60;;;9.20;99.90;;;;;;5051012;28;20554;-77
2021/03/21 11:39:35;;;;;;;17.93;2.70;;;9.20;99.90;;;;;;5049657;28;20285;-78
2021/03/21 11:42:09;;;;;;;13.97;2.33;;;9.50;99.90;;;;;;5047390;28;20714;-79
2021/03/21 11:44:36;;;;;;;15.43;2.20;;;9.70;99.90;;;;;;5048415;28;20334;-78
2021/03/21 11:47:12;;;;;;;10.93;2.13;;;9.70;99.90;;;;;;5048924;28;20725;-77
2021/03/21 11:49:40;;;;;;;13.77;2.57;;;9.60;99.90;;;;;;5048589;28;20242;-77
2021/03/21 11:52:07;;;;;;;13.33;2.30;;;9.60;99.90;;;;;;5043084;28;20263;-77
2021/03/21 11:54:38;;;;;;;15.80;3.00;;;9.60;99.90;;;;;;5045417;28;20283;-79
2021/03/21 11:57:22;;;;;;;12.20;3.03;;;9.50;99.90;;;;;;5051684;28;20210;-77
2021/03/21 11:59:56;;;;;;;19.23;3.47;;;9.60;99.90;;;;;;5047029;28;20198;-77
2021/03/21 12:02:36;;;;;;;13.10;2.77;;;9.50;99.90;;;;;;5046656;28;20285;-79
2021/03/21 12:05:06;;;;;;;11.90;2.30;;;9.60;99.90;;;;;;5050673;28;20285;-79
2021/03/21 12:07:33;;;;;;;10.17;2.50;;;9.70;99.90;;;;;;5049662;28;20193;-78
2021/03/21 12:10:01;;;;;;;12.20;3.03;;;9.80;99.90;;;;;;5051707;28;20198;-78
2021/03/21 12:12:36;;;;;;;16.23;3.47;;;9.90;99.90;;;;;;5040930;28;20293;-78
2021/03/21 12:15:06;;;;;;;17.53;2.50;;;9.70;99.90;;;;;;5051962;28;20332;-79
2021/03/21 12:17:39;;;;;;;16.30;2.47;;;9.60;99.90;;;;;;5043444;28;20225;-78
2021/03/21 12:20:46;;;;;;;14.27;2.97;;;9.60;99.90;;;;;;5048524;28;20298;-78
2021/03/21 12:23:43;;;;;;;14.90;2.73;;;9.50;99.90;;;;;;5039411;28;20264;-77
2021/03/21 12:26:21;;;;;;;18.30;3.10;;;9.60;99.90;;;;;;5018853;28;20202;-80
2021/03/21 12:28:51;;;;;;;12.23;2.87;;;9.40;99.90;;;;;;5048455;28;20729;-77
2021/03/21 12:31:22;;;;;;;16.37;4.07;;;9.40;99.90;;;;;;5050155;28;20363;-77
2021/03/21 12:33:49;;;;;;;14.83;2.60;;;9.60;99.90;;;;;;5046942;28;20240;-77
2021/03/21 12:36:20;;;;;;;26.83;3.30;;;9.40;99.90;;;;;;5051828;28;20289;-78
2021/03/21 12:38:52;;;;;;;17.07;3.33;;;9.10;99.90;;;;;;5060659;28;20198;-77
2021/03/21 12:41:32;;;;;;;20.20;3.80;;;9.30;99.90;;;;;;5057427;28;20206;-77
2021/03/21 12:44:22;;;;;;;19.57;3.27;;;9.30;99.90;;;;;;5062473;28;20197;-79
2021/03/21 12:46:52;;;;;;;17.87;3.40;;;9.40;99.90;;;;;;5063945;28;20210;-78
2021/03/21 12:49:48;;;;;;;20.80;3.13;;;9.20;99.90;;;;;;5063562;28;20232;-78
2021/03/21 12:52:21;;;;;;;17.77;3.43;;;9.20;99.90;;;;;;5062267;28;20204;-77
2021/03/21 12:54:48;;;;;;;23.30;4.03;;;9.30;99.90;;;;;;5054116;28;20198;-78
2021/03/21 12:57:16;;;;;;;22.80;4.50;;;9.30;99.90;;;;;;5050422;28;20205;-79
2021/03/21 12:59:45;;;;;;;19.67;4.00;;;9.30;99.90;;;;;;5050165;28;20574;-79
2021/03/21 13:02:24;;;;;;;25.60;4.50;;;9.30;99.90;;;;;;5045952;28;20233;-80
2021/03/21 13:04:51;;;;;;;25.00;4.63;;;9.40;99.90;;;;;;5045136;28;20194;-78
2021/03/21 13:07:18;;;;;;;34.13;4.73;;;9.20;99.90;;;;;;5052940;28;20202;-79
2021/03/21 13:09:45;;;;;;;26.10;4.50;;;9.30;99.90;;;;;;5054323;28;20251;-79
2021/03/21 13:12:14;;;;;;;24.63;3.97;;;9.50;99.90;;;;;;5051494;28;20641;-78
2021/03/21 13:14:41;;;;;;;21.63;4.37;;;9.60;99.90;;;;;;5049152;28;20222;-78
2021/03/21 13:17:10;;;;;;;22.77;3.77;;;10.10;99.90;;;;;;5051450;28;20199;-80
2021/03/21 13:19:36;;;;;;;14.37;4.13;;;10.20;99.90;;;;;;5051005;28;20344;-78
2021/03/21 13:22:04;;;;;;;18.70;3.30;;;10.10;99.90;;;;;;5052408;28;20216;-77
2021/03/21 13:24:31;;;;;;;22.63;4.20;;;10.10;99.90;;;;;;5053219;28;20233;-76
2021/03/21 13:26:58;;;;;;;16.60;3.73;;;9.90;99.90;;;;;;5048894;28;20296;-79
2021/03/21 13:29:24;;;;;;;20.20;4.50;;;9.80;99.90;;;;;;5052299;28;20252;-78